Time;durP1;ratioP1;P1;durP2;ratioP2;P2;SDS_P1;SDS_P2;PMS_P1;PMS_P2;Temp;Humidity;BMP_temperature;BMP_pressure;BME280_temperature;BME280_humidity;BME280_pressure;Samples;Min_cycle;Max_cycle;Signal;HPM_P1;HPM_P2
2023/04/17 00:00:27;;;;;;;10.60;7.90;;;9.20;99.90;;;;;;5054169;28;20440;-57
2023/04/17 00:02:54;;;;;;;12.50;8.27;;;9.20;99.90;;;;;;5053428;28;20479;-60
2023/04/17 00:05:22;;;;;;;15.83;8.13;;;9.20;99.90;;;;;;5053228;28;20508;-57
2023/04/17 00:07:49;;;;;;;13.83;9.33;;;9.20;99.90;;;;;;5053871;28;20455;-59
2023/04/17 00:10:16;;;;;;;9.60;7.60;;;9.20;99.90;;;;;;5053193;28;20495;-58
2023/04/17 00:12:42;;;;;;;10.67;8.50;;;9.20;99.90;;;;;;5053990;28;20490;-58
2023/04/17 00:15:10;;;;;;;12.47;8.30;;;9.20;99.90;;;;;;5053001;28;20964;-59
2023/04/17 00:17:38;;;;;;;11.97;7.47;;;9.20;99.90;;;;;;5053977;28;20431;-60
2023/04/17 00:20:08;;;;;;;14.53;8.77;;;9.20;99.90;;;;;;5053429;28;20447;-59
2023/04/17 00:22:35;;;;;;;13.90;7.87;;;9.20;99.90;;;;;;5053600;28;20475;-58
2023/04/17 00:25:02;;;;;;;14.10;8.23;;;9.20;99.90;;;;;;5053763;28;20504;-57
2023/04/17 00:27:29;;;;;;;16.40;8.67;;;9.20;99.90;;;;;;5053661;28;20462;-58
2023/04/17 00:29:56;;;;;;;11.57;7.70;;;9.20;99.90;;;;;;5054945;28;20440;-53
2023/04/17 00:32:23;;;;;;;13.73;7.33;;;9.20;99.90;;;;;;5053118;28;20447;-57
2023/04/17 00:34:51;;;;;;;14.23;8.23;;;9.20;99.90;;;;;;5052482;28;20468;-55
2023/04/17 00:37:18;;;;;;;10.93;8.50;;;9.20;99.90;;;;;;5052514;28;20436;-58
2023/04/17 00:39:45;;;;;;;15.17;9.33;;;9.20;99.90;;;;;;5052697;28;20583;-55
2023/04/17 00:42:12;;;;;;;16.73;9.60;;;9.20;99.90;;;;;;5052759;28;20447;-55
2023/04/17 00:44:39;;;;;;;14.50;10.00;;;9.20;99.90;;;;;;5053287;28;20436;-62
2023/04/17 00:47:06;;;;;;;12.33;8.03;;;9.20;99.90;;;;;;5051636;28;20511;-58
2023/04/17 00:49:33;;;;;;;13.73;8.73;;;9.10;99.90;;;;;;5045791;28;20790;-58
2023/04/17 00:52:01;;;;;;;12.43;8.70;;;9.20;99.90;;;;;;5044830;28;20487;-58
2023/04/17 00:54:30;;;;;;;15.70;9.90;;;9.10;99.90;;;;;;5046239;28;20451;-59
2023/04/17 00:56:57;;;;;;;10.70;7.57;;;9.10;99.90;;;;;;5044558;28;20443;-58
2023/04/17 00:59:26;;;;;;;18.83;10.10;;;9.10;99.90;;;;;;5045000;28;20472;-60
2023/04/17 01:01:53;;;;;;;12.93;8.90;;;9.10;99.90;;;;;;5044537;28;20503;-58
2023/04/17 01:04:20;;;;;;;12.80;8.83;;;9.00;99.90;;;;;;5044860;28;20555;-59
2023/04/17 01:06:47;;;;;;;14.13;8.07;;;9.00;99.90;;;;;;5044684;28;20448;-56
2023/04/17 01:09:15;;;;;;;13.70;9.17;;;9.00;99.90;;;;;;5044254;28;20512;-59
2023/04/17 01:11:42;;;;;;;11.00;8.30;;;9.00;99.90;;;;;;5045355;28;20480;-59
2023/04/17 01:14:09;;;;;;;14.83;8.90;;;9.00;99.90;;;;;;5046429;28;20440;-58
2023/04/17 01:16:39;;;;;;;12.53;8.03;;;8.90;99.90;;;;;;5043249;28;20468;-59
2023/04/17 01:19:06;;;;;;;15.70;8.53;;;8.90;99.90;;;;;;5046244;28;20474;-59
2023/04/17 01:21:33;;;;;;;10.70;7.93;;;9.00;99.90;;;;;;5045546;28;20508;-59
2023/04/17 01:24:02;;;;;;;15.50;9.70;;;8.90;99.90;;;;;;5044658;28;20468;-59
2023/04/17 01:26:31;;;;;;;11.97;8.77;;;8.90;99.90;;;;;;5044854;28;20524;-56
2023/04/17 01:29:00;;;;;;;11.50;7.80;;;8.90;99.90;;;;;;5048385;28;20499;-59
2023/04/17 01:31:28;;;;;;;13.47;8.33;;;8.90;99.90;;;;;;5048824;28;20500;-59
2023/04/17 01:33:55;;;;;;;17.10;9.00;;;8.90;99.90;;;;;;5049952;28;20448;-59
2023/04/17 01:36:22;;;;;;;14.80;8.70;;;8.90;99.90;;;;;;5049567;28;20450;-58
2023/04/17 01:38:49;;;;;;;18.23;9.50;;;8.90;99.90;;;;;;5048826;28;20468;-59
2023/04/17 01:41:17;;;;;;;15.50;10.27;;;8.90;99.90;;;;;;5048578;28;20551;-58
2023/04/17 01:43:46;;;;;;;18.27;10.73;;;8.90;99.90;;;;;;5048933;28;20947;-58
2023/04/17 01:46:13;;;;;;;14.80;8.70;;;8.90;99.90;;;;;;5048697;28;20813;-58
2023/04/17 01:48:40;;;;;;;25.10;9.07;;;8.90;99.90;;;;;;5048746;28;20448;-58
2023/04/17 01:51:07;;;;;;;13.93;8.03;;;8.90;99.90;;;;;;5049480;28;20554;-57
2023/04/17 01:53:34;;;;;;;13.20;10.03;;;8.90;99.90;;;;;;5047489;28;20536;-58
2023/04/17 01:56:01;;;;;;;18.23;10.07;;;8.90;99.90;;;;;;5048259;28;20726;-59
2023/04/17 01:58:30;;;;;;;19.50;8.20;;;8.90;99.90;;;;;;5046205;28;20855;-59
2023/04/17 02:01:00;;;;;;;12.50;8.10;;;8.90;99.90;;;;;;5044363;28;20531;-59
2023/04/17 02:03:27;;;;;;;18.73;10.57;;;8.90;99.90;;;;;;5044270;28;20487;-58
2023/04/17 02:05:54;;;;;;;14.67;9.60;;;8.90;99.90;;;;;;5043786;28;20566;-59
2023/04/17 02:08:21;;;;;;;13.77;8.37;;;8.80;99.90;;;;;;5044748;28;20777;-59
2023/04/17 02:10:48;;;;;;;15.07;9.40;;;8.70;99.90;;;;;;5045213;28;20507;-60
2023/04/17 02:13:15;;;;;;;15.00;8.07;;;8.70;99.90;;;;;;5045090;28;20523;-60
2023/04/17 02:15:43;;;;;;;13.40;9.30;;;8.70;99.90;;;;;;5046210;28;20484;-59
2023/04/17 02:18:10;;;;;;;14.50;9.47;;;8.70;99.90;;;;;;5045795;28;20995;-58
2023/04/17 02:20:38;;;;;;;14.97;9.00;;;8.70;99.90;;;;;;5045430;28;20471;-58
2023/04/17 02:23:06;;;;;;;15.33;9.13;;;8.60;99.90;;;;;;5045552;28;20595;-58
2023/04/17 02:25:34;;;;;;;14.33;8.03;;;8.60;99.90;;;;;;5044686;28;20443;-57
2023/04/17 02:28:01;;;;;;;17.60;10.53;;;8.60;99.90;;;;;;5043877;28;20476;-58
2023/04/17 02:30:29;;;;;;;11.67;8.33;;;8.50;99.90;;;;;;5043799;28;20495;-56
2023/04/17 02:32:58;;;;;;;11.60;8.17;;;8.40;99.90;;;;;;5043746;28;20475;-58
2023/04/17 02:35:26;;;;;;;20.97;8.53;;;8.50;99.90;;;;;;5043373;28;20479;-56
2023/04/17 02:37:56;;;;;;;14.17;7.93;;;8.40;99.90;;;;;;5043795;28;20468;-58
2023/04/17 02:40:23;;;;;;;12.23;8.20;;;8.40;99.90;;;;;;5042808;28;20455;-57
2023/04/17 02:42:50;;;;;;;15.50;8.67;;;8.30;99.90;;;;;;5043759;28;20495;-58
2023/04/17 02:45:16;;;;;;;14.03;8.57;;;8.30;99.90;;;;;;5044583;28;20535;-58
2023/04/17 02:47:43;;;;;;;12.57;8.70;;;8.30;99.90;;;;;;5045343;28;20464;-58
2023/04/17 02:50:12;;;;;;;11.67;8.43;;;8.20;99.90;;;;;;5048031;28;20523;-58
2023/04/17 02:52:40;;;;;;;14.13;9.77;;;8.20;99.90;;;;;;5043892;28;20483;-58
2023/04/17 02:55:08;;;;;;;14.97;8.10;;;8.20;99.90;;;;;;5045876;28;20549;-59
2023/04/17 02:57:35;;;;;;;16.17;8.47;;;8.20;99.90;;;;;;5045221;28;20512;-57
2023/04/17 03:00:06;;;;;;;12.23;9.80;;;8.20;99.90;;;;;;5046043;28;20567;-55
2023/04/17 03:02:33;;;;;;;13.13;7.40;;;8.20;99.90;;;;;;5046424;28;20448;-55
2023/04/17 03:05:02;;;;;;;13.17;8.27;;;8.10;99.90;;;;;;5045441;28;20487;-58
2023/04/17 03:07:31;;;;;;;14.30;8.00;;;8.10;99.90;;;;;;5043774;28;20471;-57
2023/04/17 03:09:59;;;;;;;16.03;9.40;;;8.00;99.90;;;;;;5044265;28;20472;-58
2023/04/17 03:12:26;;;;;;;12.03;9.07;;;8.00;99.90;;;;;;5044385;28;20522;-59
2023/04/17 03:14:53;;;;;;;15.53;9.20;;;7.90;99.90;;;;;;5044489;28;20460;-57
2023/04/17 03:17:20;;;;;;;15.13;8.97;;;7.90;99.90;;;;;;5044026;28;20478;-59
2023/04/17 03:19:47;;;;;;;14.70;9.77;;;7.90;99.90;;;;;;5044136;28;20543;-54
2023/04/17 03:22:14;;;;;;;11.37;6.90;;;7.90;99.90;;;;;;5045117;28;20464;-58
2023/04/17 03:24:42;;;;;;;17.77;9.40;;;7.90;99.90;;;;;;5046157;28;20555;-55
2023/04/17 03:27:09;;;;;;;18.43;9.83;;;7.90;99.90;;;;;;5051855;28;20479;-59
2023/04/17 03:29:36;;;;;;;12.93;9.30;;;7.90;99.90;;;;;;5050157;28;20504;-56
2023/04/17 03:32:03;;;;;;;16.17;9.77;;;7.90;99.90;;;;;;5050036;28;20480;-57
2023/04/17 03:34:31;;;;;;;16.47;9.70;;;7.90;99.90;;;;;;5047966;28;20512;-59
2023/04/17 03:36:58;;;;;;;15.40;8.90;;;7.90;99.90;;;;;;5045520;28;20468;-59
2023/04/17 03:39:25;;;;;;;14.70;9.37;;;7.90;99.90;;;;;;5045626;28;20508;-59
2023/04/17 03:41:54;;;;;;;18.30;9.70;;;7.90;99.90;;;;;;5045808;28;20452;-57
2023/04/17 03:44:21;;;;;;;16.50;8.40;;;7.80;99.90;;;;;;5048011;28;20459;-55
2023/04/17 03:46:48;;;;;;;15.90;8.37;;;7.80;99.90;;;;;;5053107;28;20448;-59
2023/04/17 03:49:15;;;;;;;16.53;10.10;;;7.80;99.90;;;;;;5049902;28;20464;-59
2023/04/17 03:51:42;;;;;;;14.90;9.33;;;7.80;99.90;;;;;;5044724;28;20514;-58
2023/04/17 03:54:12;;;;;;;14.97;9.17;;;7.80;99.90;;;;;;5045683;28;20440;-58
2023/04/17 03:56:38;;;;;;;18.17;10.80;;;7.80;99.90;;;;;;5044406;28;20514;-56
2023/04/17 03:59:07;;;;;;;21.93;9.30;;;7.90;99.90;;;;;;5046059;28;20468;-59
2023/04/17 04:01:37;;;;;;;13.90;9.70;;;7.80;99.90;;;;;;5046210;28;20465;-56
2023/04/17 04:04:07;;;;;;;15.83;10.60;;;7.80;99.90;;;;;;5046015;28;20428;-58
2023/04/17 04:06:36;;;;;;;14.30;9.33;;;7.80;99.90;;;;;;5045196;28;20444;-58
2023/04/17 04:09:03;;;;;;;18.40;10.70;;;7.80;99.90;;;;;;5045442;28;20448;-59
2023/04/17 04:11:32;;;;;;;28.27;11.47;;;7.80;99.90;;;;;;5045510;28;20476;-55
2023/04/17 04:13:59;;;;;;;25.83;10.80;;;7.80;99.90;;;;;;5045048;28;20514;-59
2023/04/17 04:16:27;;;;;;;13.60;9.53;;;7.70;99.90;;;;;;5044975;28;20486;-58
2023/04/17 04:18:54;;;;;;;16.47;9.20;;;7.70;99.90;;;;;;5044436;28;20444;-59
2023/04/17 04:21:22;;;;;;;19.73;10.00;;;7.80;99.90;;;;;;5044462;28;20444;-60
2023/04/17 04:23:49;;;;;;;16.23;9.80;;;7.80;99.90;;;;;;5044550;28;20448;-58
2023/04/17 04:26:16;;;;;;;19.60;12.20;;;7.80;99.90;;;;;;5043966;28;20475;-57
2023/04/17 04:28:43;;;;;;;15.93;10.90;;;7.80;99.90;;;;;;5044117;28;20462;-58
2023/04/17 04:31:13;;;;;;;22.30;11.40;;;7.90;99.90;;;;;;5044749;28;20570;-60
2023/04/17 04:33:43;;;;;;;19.83;11.03;;;7.90;99.90;;;;;;5044546;28;20462;-56
2023/04/17 04:36:12;;;;;;;14.43;10.23;;;8.00;99.90;;;;;;5044409;28;20475;-58
2023/04/17 04:38:39;;;;;;;16.30;9.10;;;7.90;99.90;;;;;;5044370;28;20476;-59
2023/04/17 04:41:09;;;;;;;17.30;11.60;;;7.90;99.90;;;;;;5044501;28;20996;-59
2023/04/17 04:43:36;;;;;;;21.67;13.73;;;8.00;99.90;;;;;;5044472;28;20464;-58
2023/04/17 04:46:03;;;;;;;25.70;11.83;;;7.90;99.90;;;;;;5045159;28;20483;-56
2023/04/17 04:48:30;;;;;;;17.57;11.60;;;7.90;99.90;;;;;;5044772;28;20468;-55
2023/04/17 04:50:58;;;;;;;19.93;10.73;;;7.90;99.90;;;;;;5044694;28;20631;-53
2023/04/17 04:53:25;;;;;;;18.27;10.47;;;7.90;99.90;;;;;;5044222;28;20548;-59
2023/04/17 04:55:52;;;;;;;15.97;11.43;;;7.90;99.90;;;;;;5045159;28;20448;-60
2023/04/17 04:58:19;;;;;;;19.33;12.20;;;7.90;99.90;;;;;;5044625;28;20456;-56
2023/04/17 05:00:46;;;;;;;19.50;10.80;;;7.90;99.90;;;;;;5044465;28;20471;-59
2023/04/17 05:03:13;;;;;;;17.20;11.30;;;7.90;99.90;;;;;;5043819;28;20506;-57
2023/04/17 05:05:42;;;;;;;20.47;12.00;;;8.00;99.90;;;;;;5043753;28;20479;-58
2023/04/17 05:08:10;;;;;;;26.50;12.63;;;8.00;99.90;;;;;;5043546;28;20446;-57
2023/04/17 05:10:37;;;;;;;17.67;10.57;;;8.00;99.90;;;;;;5043993;28;20979;-59
2023/04/17 05:13:04;;;;;;;18.73;10.37;;;8.00;99.90;;;;;;5043993;28;20479;-60
2023/04/17 05:15:30;;;;;;;21.00;12.77;;;8.00;99.90;;;;;;5043973;28;20531;-58
2023/04/17 05:17:57;;;;;;;17.13;10.90;;;8.00;99.90;;;;;;5044224;28;20531;-58
2023/04/17 05:20:25;;;;;;;20.03;12.20;;;8.00;99.90;;;;;;5044623;28;20504;-59
2023/04/17 05:22:52;;;;;;;21.00;12.37;;;8.10;99.90;;;;;;5043748;28;20468;-58
2023/04/17 05:25:21;;;;;;;18.90;11.87;;;8.10;99.90;;;;;;5044290;28;20519;-59
2023/04/17 05:27:48;;;;;;;20.17;12.70;;;8.10;99.90;;;;;;5043842;28;20471;-57
2023/04/17 05:30:15;;;;;;;23.23;12.43;;;8.10;99.90;;;;;;5044641;28;20458;-58
2023/04/17 05:32:42;;;;;;;17.20;11.67;;;8.20;99.90;;;;;;5044638;28;20488;-59
2023/04/17 05:35:09;;;;;;;34.30;14.10;;;8.10;99.90;;;;;;5044730;28;20440;-57
2023/04/17 05:37:36;;;;;;;18.80;11.93;;;8.10;99.90;;;;;;5044179;28;20507;-59
2023/04/17 05:40:05;;;;;;;27.73;13.80;;;8.20;99.90;;;;;;5044289;28;20436;-57
2023/04/17 05:42:34;;;;;;;21.07;13.10;;;8.20;99.90;;;;;;5043490;28;20474;-55
2023/04/17 05:45:01;;;;;;;22.27;12.90;;;8.20;99.90;;;;;;5043898;28;20472;-58
2023/04/17 05:47:28;;;;;;;22.20;14.37;;;8.30;99.90;;;;;;5043728;28;20950;-60
2023/04/17 05:49:56;;;;;;;25.23;13.23;;;8.30;99.90;;;;;;5043714;28;20455;-59
2023/04/17 05:52:24;;;;;;;24.80;13.57;;;8.30;99.90;;;;;;5043932;28;20511;-58
2023/04/17 05:54:50;;;;;;;23.07;13.63;;;8.40;99.90;;;;;;5044038;28;20467;-58
2023/04/17 05:57:17;;;;;;;23.10;12.27;;;8.40;99.90;;;;;;5043026;28;20531;-59
2023/04/17 05:59:46;;;;;;;24.33;14.20;;;8.40;99.90;;;;;;5043079;28;20563;-59
2023/04/17 06:02:12;;;;;;;26.23;14.70;;;8.40;99.90;;;;;;5044227;28;20877;-59
2023/04/17 06:04:40;;;;;;;24.77;14.83;;;8.40;99.90;;;;;;5043891;28;20531;-59
2023/04/17 06:07:07;;;;;;;25.50;14.27;;;8.40;99.90;;;;;;5043554;28;20448;-60
2023/04/17 06:09:35;;;;;;;23.20;14.60;;;8.40;99.90;;;;;;5044040;28;20444;-59
2023/04/17 06:12:02;;;;;;;23.47;13.90;;;8.40;99.90;;;;;;5043561;28;20527;-58
2023/04/17 06:14:29;;;;;;;26.90;15.53;;;8.40;99.90;;;;;;5046212;28;20452;-59
2023/04/17 06:16:57;;;;;;;30.67;15.67;;;8.40;99.90;;;;;;5047300;28;20503;-58
2023/04/17 06:19:24;;;;;;;23.70;13.60;;;8.40;99.90;;;;;;5046756;28;20527;-57
2023/04/17 06:21:51;;;;;;;28.83;15.17;;;8.40;99.90;;;;;;5046430;28;20472;-59
2023/04/17 06:24:21;;;;;;;25.80;15.47;;;8.40;99.90;;;;;;5046763;28;20444;-58
2023/04/17 06:26:48;;;;;;;25.63;14.80;;;8.40;99.90;;;;;;5046452;28;20498;-57
2023/04/17 06:29:15;;;;;;;23.77;14.17;;;8.40;99.90;;;;;;5046740;28;20435;-59
2023/04/17 06:31:42;;;;;;;26.50;15.00;;;8.40;99.90;;;;;;5046401;28;20451;-58
2023/04/17 06:34:10;;;;;;;21.13;13.07;;;8.40;99.90;;;;;;5046984;28;20488;-59
2023/04/17 06:36:37;;;;;;;24.50;12.77;;;8.50;99.90;;;;;;5047498;28;20444;-55
2023/04/17 06:39:04;;;;;;;26.70;16.80;;;8.50;99.90;;;;;;5046723;28;20535;-58
2023/04/17 06:41:31;;;;;;;22.83;15.43;;;8.50;99.90;;;;;;5046892;28;20506;-58
2023/04/17 06:43:58;;;;;;;22.90;15.23;;;8.50;99.90;;;;;;5046376;28;20456;-59
2023/04/17 06:46:25;;;;;;;19.80;12.87;;;8.60;99.90;;;;;;5046730;28;20467;-59
2023/04/17 06:48:56;;;;;;;25.13;13.67;;;8.60;99.90;;;;;;5047023;28;20443;-60
2023/04/17 06:51:26;;;;;;;21.90;12.60;;;8.50;99.90;;;;;;5047413;28;20508;-60
2023/04/17 06:53:53;;;;;;;22.37;13.80;;;8.50;99.90;;;;;;5047134;28;20491;-59
2023/04/17 06:56:20;;;;;;;23.97;13.50;;;8.40;99.90;;;;;;5047113;28;20525;-60
2023/04/17 06:58:47;;;;;;;26.33;13.93;;;8.50;99.90;;;;;;5046786;28;20981;-60
2023/04/17 07:01:14;;;;;;;24.93;13.10;;;8.40;99.90;;;;;;5046683;28;20499;-60
2023/04/17 07:03:42;;;;;;;24.80;14.30;;;8.40;99.90;;;;;;5046091;28;20444;-60
2023/04/17 07:06:09;;;;;;;20.50;14.60;;;8.50;99.90;;;;;;5046340;28;20913;-60
2023/04/17 07:08:37;;;;;;;23.93;13.33;;;8.60;99.90;;;;;;5046446;28;20486;-58
2023/04/17 07:11:05;;;;;;;32.43;15.30;;;9.80;99.90;;;;;;5046423;28;20439;-60
2023/04/17 07:13:32;;;;;;;20.63;12.83;;;8.60;99.90;;;;;;5045673;28;20483;-60
2023/04/17 07:15:59;;;;;;;24.00;13.77;;;8.60;99.90;;;;;;5044917;28;20512;-61
2023/04/17 07:18:28;;;;;;;25.23;15.27;;;8.60;99.90;;;;;;5045162;28;20464;-57
2023/04/17 07:20:55;;;;;;;22.20;14.47;;;8.70;99.90;;;;;;5045810;28;20479;-60
2023/04/17 07:23:22;;;;;;;22.37;13.10;;;8.70;99.90;;;;;;5045436;28;20541;-59
2023/04/17 07:25:50;;;;;;;20.57;12.60;;;8.80;99.90;;;;;;5042926;28;20467;-60
2023/04/17 07:28:17;;;;;;;23.83;13.80;;;8.80;99.90;;;;;;5039679;28;20459;-58
2023/04/17 07:30:44;;;;;;;23.10;13.83;;;8.80;99.90;;;;;;5040306;28;20483;-60
2023/04/17 07:33:11;;;;;;;22.10;14.30;;;8.90;99.90;;;;;;5040336;28;20508;-61
2023/04/17 07:35:38;;;;;;;29.50;12.90;;;9.00;99.90;;;;;;5039880;28;20472;-59
2023/04/17 07:38:08;;;;;;;24.80;14.57;;;9.00;99.90;;;;;;5039639;28;20464;-59
2023/04/17 07:40:36;;;;;;;22.00;13.83;;;9.10;99.90;;;;;;5039432;28;20480;-59
2023/04/17 07:43:04;;;;;;;24.20;13.20;;;9.20;99.90;;;;;;5039201;28;20471;-61
2023/04/17 07:45:32;;;;;;;26.20;13.10;;;9.20;99.90;;;;;;5039571;28;20475;-61
2023/04/17 07:47:59;;;;;;;20.07;12.13;;;9.20;99.90;;;;;;5039658;28;20466;-58
2023/04/17 07:50:26;;;;;;;23.00;12.00;;;9.30;99.90;;;;;;5039847;28;20458;-60
2023/04/17 07:52:53;;;;;;;21.27;12.13;;;9.40;99.90;;;;;;5039885;28;20584;-58
2023/04/17 07:55:20;;;;;;;25.63;13.30;;;9.30;99.90;;;;;;5040116;28;20479;-59
2023/04/17 07:57:48;;;;;;;20.53;12.33;;;9.20;99.90;;;;;;5039818;28;20607;-60
2023/04/17 08:00:18;;;;;;;21.17;12.43;;;9.30;99.90;;;;;;5039228;28;20448;-61
2023/04/17 08:02:45;;;;;;;21.63;12.23;;;9.30;99.90;;;;;;5039629;28;20534;-60
2023/04/17 08:05:12;;;;;;;26.57;12.60;;;9.30;99.90;;;;;;5039239;28;20432;-55
2023/04/17 08:07:40;;;;;;;28.00;12.97;;;9.30;99.90;;;;;;5039665;28;20538;-60
2023/04/17 08:10:07;;;;;;;22.40;13.17;;;9.30;99.90;;;;;;5039349;28;20512;-60
2023/04/17 08:12:35;;;;;;;19.60;12.43;;;9.30;99.90;;;;;;5039634;28;20439;-60
2023/04/17 08:15:02;;;;;;;21.03;12.70;;;9.30;99.90;;;;;;5039636;28;20543;-61
2023/04/17 08:17:30;;;;;;;18.03;11.87;;;9.40;99.90;;;;;;5039300;28;20448;-59
2023/04/17 08:19:57;;;;;;;24.30;13.43;;;9.50;99.90;;;;;;5039302;28;20538;-56
2023/04/17 08:22:33;;;;;;;21.23;11.43;;;9.60;99.90;;;;;;5040076;28;20881;-58
2023/04/17 08:25:01;;;;;;;20.10;10.80;;;9.60;99.90;;;;;;5038993;28;20503;-56
2023/04/17 08:27:29;;;;;;;15.87;9.87;;;9.70;99.90;;;;;;5038960;28;20467;-57
2023/04/17 08:29:56;;;;;;;15.03;10.60;;;10.30;99.90;;;;;;5038601;28;20452;-59
2023/04/17 08:32:23;;;;;;;15.80;11.50;;;10.70;99.90;;;;;;5038091;28;20447;-57
2023/04/17 08:34:51;;;;;;;19.30;11.27;;;10.60;99.90;;;;;;5038305;28;20568;-61
2023/04/17 08:37:18;;;;;;;22.00;13.10;;;10.50;99.90;;;;;;5050828;28;20448;-59
2023/04/17 08:39:45;;;;;;;22.30;12.23;;;10.40;99.90;;;;;;5055656;28;20452;-56
2023/04/17 08:42:13;;;;;;;23.80;13.60;;;10.40;99.90;;;;;;5055635;28;20478;-60
2023/04/17 08:44:40;;;;;;;19.40;11.87;;;10.30;99.90;;;;;;5048044;28;20889;-62
2023/04/17 08:47:08;;;;;;;17.63;12.13;;;10.30;99.90;;;;;;5040084;28;20523;-60
2023/04/17 08:49:35;;;;;;;19.63;12.50;;;10.30;99.90;;;;;;5038373;28;20448;-61
2023/04/17 08:52:06;;;;;;;21.37;12.27;;;10.40;99.90;;;;;;5038477;28;20456;-61
2023/04/17 08:54:34;;;;;;;21.07;10.90;;;10.40;99.90;;;;;;5037783;28;20586;-62
2023/04/17 08:57:03;;;;;;;21.50;12.50;;;10.40;99.90;;;;;;5037665;28;20471;-61
2023/04/17 08:59:33;;;;;;;20.67;11.37;;;10.50;99.90;;;;;;5038159;28;20479;-64
2023/04/17 09:02:01;;;;;;;16.90;10.47;;;10.50;99.90;;;;;;5038163;28;20531;-57
2023/04/17 09:04:39;;;;;;;13.13;9.33;;;10.50;99.90;;;;;;5037974;28;20471;-63
2023/04/17 09:07:09;;;;;;;21.10;13.40;;;10.60;99.90;;;;;;5038182;28;20734;-60
2023/04/17 09:09:49;;;;;;;18.70;12.13;;;11.20;99.90;;;;;;5037693;28;20517;-60
2023/04/17 09:12:17;;;;;;;20.27;11.00;;;12.10;99.90;;;;;;5037413;28;20498;-61
2023/04/17 09:14:44;;;;;;;18.50;11.30;;;12.80;99.90;;;;;;5036714;28;20496;-61
2023/04/17 09:17:11;;;;;;;13.63;10.53;;;13.10;99.90;;;;;;5036612;28;20472;-62
2023/04/17 09:19:38;;;;;;;16.93;10.40;;;13.20;99.90;;;;;;5036537;28;20543;-60
2023/04/17 09:22:20;;;;;;;17.07;11.43;;;13.10;99.90;;;;;;5037003;28;21002;-61
2023/04/17 09:24:48;;;;;;;15.43;10.97;;;12.90;99.90;;;;;;5037074;28;20444;-61
2023/04/17 09:27:22;;;;;;;17.90;11.27;;;12.70;99.90;;;;;;5036510;28;20460;-60
2023/04/17 09:29:57;;;;;;;17.13;11.87;;;12.40;99.90;;;;;;5037335;28;20439;-64
2023/04/17 09:32:24;;;;;;;19.70;12.30;;;12.20;99.90;;;;;;5036731;28;20440;-59
2023/04/17 09:34:52;;;;;;;15.87;11.00;;;11.90;99.90;;;;;;5036471;28;20472;-62
2023/04/17 09:37:20;;;;;;;18.10;11.50;;;11.80;99.90;;;;;;5037272;28;20924;-63
2023/04/17 09:39:58;;;;;;;16.30;11.23;;;11.50;99.90;;;;;;5037154;28;20455;-62
2023/04/17 09:42:26;;;;;;;15.43;10.00;;;11.40;99.90;;;;;;5037204;28;20896;-60
2023/04/17 09:44:53;;;;;;;17.37;10.40;;;11.30;99.90;;;;;;5036968;28;20468;-62
2023/04/17 09:47:20;;;;;;;18.37;10.90;;;11.30;99.90;;;;;;5037013;28;20440;-63
2023/04/17 09:49:52;;;;;;;20.23;11.33;;;11.20;99.90;;;;;;5039829;28;20840;-62
2023/04/17 09:52:22;;;;;;;20.13;12.57;;;11.30;99.90;;;;;;5042049;28;20481;-63
2023/04/17 09:54:52;;;;;;;19.70;10.53;;;11.50;99.90;;;;;;5040531;28;20793;-62
2023/04/17 09:57:19;;;;;;;17.90;10.87;;;11.80;99.90;;;;;;5039885;28;20440;-63
2023/04/17 09:59:48;;;;;;;16.23;9.90;;;12.40;99.90;;;;;;5040291;28;20494;-62
2023/04/17 10:02:17;;;;;;;14.50;9.07;;;13.10;99.90;;;;;;5039448;28;20467;-63
2023/04/17 10:04:45;;;;;;;14.13;9.00;;;14.20;99.90;;;;;;5039790;28;20503;-64
2023/04/17 10:07:13;;;;;;;10.47;8.17;;;14.80;99.90;;;;;;5039189;28;20503;-61
2023/04/17 10:09:44;;;;;;;16.17;10.27;;;14.80;99.90;;;;;;5039763;28;20447;-61
2023/04/17 10:12:13;;;;;;;12.60;8.87;;;14.60;99.90;;;;;;5039218;28;20432;-61
2023/04/17 10:14:45;;;;;;;14.43;9.90;;;14.20;99.90;;;;;;5039066;28;20940;-64
2023/04/17 10:17:27;;;;;;;12.43;8.83;;;13.80;99.90;;;;;;5039797;28;20448;-62
2023/04/17 10:19:54;;;;;;;14.70;8.83;;;13.70;99.90;;;;;;5039190;28;20432;-61
2023/04/17 10:22:39;;;;;;;12.53;8.77;;;14.40;99.90;;;;;;5040192;28;20761;-62
2023/04/17 10:25:21;;;;;;;13.87;8.67;;;15.40;99.90;;;;;;5038939;28;20467;-65
2023/04/17 10:27:54;;;;;;;11.57;8.07;;;16.10;99.90;;;;;;5038344;28;20491;-63
2023/04/17 10:30:25;;;;;;;13.00;9.03;;;16.40;99.90;;;;;;5038663;28;20472;-64
2023/04/17 10:33:20;;;;;;;14.00;9.97;;;16.20;99.90;;;;;;5039393;28;20562;-64
2023/04/17 10:35:47;;;;;;;19.47;9.67;;;15.90;99.90;;;;;;5037149;28;20511;-62
2023/04/17 10:38:16;;;;;;;18.07;9.60;;;15.60;99.90;;;;;;5038827;28;20523;-60
2023/04/17 10:40:44;;;;;;;13.13;8.93;;;15.20;99.90;;;;;;5038892;28;20479;-64
2023/04/17 10:43:15;;;;;;;13.30;8.23;;;14.70;99.90;;;;;;5040454;28;20463;-66
2023/04/17 10:45:57;;;;;;;12.20;9.80;;;14.20;99.90;;;;;;5041364;28;20441;-65
2023/04/17 10:48:29;;;;;;;12.67;9.93;;;13.70;99.90;;;;;;5044601;28;20499;-57
2023/04/17 10:50:56;;;;;;;17.57;9.70;;;13.50;99.90;;;;;;5044543;28;20452;-64
2023/04/17 10:53:43;;;;;;;15.33;9.43;;;13.20;99.90;;;;;;5039117;28;20459;-62
2023/04/17 10:56:17;;;;;;;14.80;10.13;;;13.00;99.90;;;;;;5039403;28;20428;-61
2023/04/17 10:58:57;;;;;;;14.90;10.37;;;12.80;99.90;;;;;;5039441;28;20507;-62
2023/04/17 11:01:26;;;;;;;13.93;10.23;;;12.80;99.90;;;;;;5037914;28;20432;-58
2023/04/17 11:03:53;;;;;;;14.00;8.67;;;13.00;99.90;;;;;;5039271;28;20783;-62
2023/04/17 11:06:20;;;;;;;16.70;9.50;;;13.60;99.90;;;;;;5038610;28;20527;-57
2023/04/17 11:08:48;;;;;;;13.63;9.70;;;14.20;99.90;;;;;;5038279;28;20476;-61
2023/04/17 11:11:18;;;;;;;11.93;9.17;;;14.60;99.90;;;;;;5038085;28;20452;-64
2023/04/17 11:13:48;;;;;;;14.87;9.17;;;14.80;99.90;;;;;;5038431;28;20495;-64
2023/04/17 11:16:15;;;;;;;14.23;10.33;;;14.60;99.90;;;;;;5038317;28;20968;-61
2023/04/17 11:18:43;;;;;;;13.60;10.30;;;14.30;99.90;;;;;;5038088;28;20474;-59
2023/04/17 11:21:11;;;;;;;13.10;8.37;;;14.10;99.90;;;;;;5037717;28;20991;-61
2023/04/17 11:23:38;;;;;;;16.10;10.27;;;13.90;99.90;;;;;;5037853;28;20440;-63
2023/04/17 11:26:06;;;;;;;16.13;10.60;;;13.80;99.90;;;;;;5036283;28;20863;-63
2023/04/17 11:28:36;;;;;;;13.73;9.20;;;13.80;99.90;;;;;;5036487;28;20496;-64
2023/04/17 11:31:03;;;;;;;14.10;10.37;;;14.10;99.90;;;;;;5036222;28;20448;-64
2023/04/17 11:33:36;;;;;;;13.33;9.00;;;14.30;99.90;;;;;;5036283;28;20506;-63
2023/04/17 11:36:04;;;;;;;12.07;8.53;;;14.40;99.90;;;;;;5036614;28;20432;-65
2023/04/17 11:38:32;;;;;;;12.47;9.20;;;14.30;99.90;;;;;;5036156;28;20471;-61
2023/04/17 11:41:00;;;;;;;17.83;10.97;;;14.10;99.90;;;;;;5036530;28;20501;-63
2023/04/17 11:43:28;;;;;;;18.27;9.70;;;14.00;99.90;;;;;;5036023;28;20533;-56
2023/04/17 11:45:58;;;;;;;13.20;8.90;;;14.00;99.90;;;;;;5036208;28;20536;-64
2023/04/17 11:48:27;;;;;;;11.57;8.40;;;13.90;99.90;;;;;;5036229;28;20480;-64
2023/04/17 11:50:56;;;;;;;12.73;8.67;;;14.00;99.90;;;;;;5036223;28;20472;-59
2023/04/17 11:53:23;;;;;;;16.80;9.97;;;13.80;99.90;;;;;;5036203;28;20491;-62
2023/04/17 11:56:14;;;;;;;12.53;8.73;;;13.60;99.90;;;;;;5036312;28;20586;-60
2023/04/17 11:58:49;;;;;;;16.10;10.50;;;13.50;99.90;;;;;;5035905;28;20488;-60
2023/04/17 12:01:18;;;;;;;13.50;9.10;;;13.40;99.90;;;;;;5038007;28;20505;-63
2023/04/17 12:03:47;;;;;;;17.07;10.93;;;13.30;99.90;;;;;;5039935;28;20463;-63
2023/04/17 12:06:14;;;;;;;12.20;8.93;;;13.40;99.90;;;;;;5039801;28;20527;-64
2023/04/17 12:08:44;;;;;;;13.90;10.30;;;13.40;99.90;;;;;;5043114;28;20444;-62
2023/04/17 12:11:16;;;;;;;16.13;10.10;;;13.50;99.90;;;;;;5041022;28;20478;-61
2023/04/17 12:13:43;;;;;;;16.53;9.77;;;13.60;99.90;;;;;;5039453;28;20425;-60
2023/04/17 12:16:10;;;;;;;15.43;9.10;;;13.50;99.90;;;;;;5038233;28;20532;-60
2023/04/17 12:18:39;;;;;;;15.30;9.30;;;13.30;99.90;;;;;;5036078;28;20515;-63
2023/04/17 12:21:06;;;;;;;22.20;10.30;;;13.10;99.90;;;;;;5035463;28;20514;-61
2023/04/17 12:23:33;;;;;;;20.50;11.37;;;13.00;99.90;;;;;;5035792;28;20856;-62
2023/04/17 12:26:00;;;;;;;17.40;9.47;;;12.70;99.90;;;;;;5035618;28;20439;-60
2023/04/17 12:28:27;;;;;;;13.87;9.80;;;12.60;99.90;;;;;;5035317;28;20538;-62
2023/04/17 12:30:54;;;;;;;22.57;9.67;;;12.60;99.90;;;;;;5035823;28;20456;-64
2023/04/17 12:33:20;;;;;;;15.67;10.77;;;12.50;99.90;;;;;;5035725;28;20452;-60
2023/04/17 12:35:50;;;;;;;14.17;8.57;;;12.40;99.90;;;;;;5035324;28;20555;-61
2023/04/17 12:38:17;;;;;;;15.63;10.50;;;12.30;99.90;;;;;;5035159;28;20448;-61
2023/04/17 12:40:46;;;;;;;13.90;10.10;;;12.10;99.90;;;;;;5035240;28;20814;-60
2023/04/17 12:43:13;;;;;;;14.47;9.40;;;12.00;99.90;;;;;;5035185;28;20443;-59